メインページ
METAR-TAF:

METAR-TAF

空港 :

ワットタイ国際空港

ヴィエンチャン, ラオス

緯度: 17-57N, 経度: 102-34E, 海抜: 171m

現時点の気象観測

当レポートは35分前の03:30(UTC)に作成
北/北西の風 2kt
気温 28°C
湿度 70%
気圧 1012 hPa
視程10km以上
高度1600ftの雲はほとんどない
高度4000ftの千切れ雲あり

METAR: VLVT 220330Z 34002KT 9999 FEW016 BKN040 28/22 Q1012 NOSIG

時間: 11:05 (04:05 UTC)

予報

当レポートは5時間5分前の23:00(UTC)に作成
予報は22日の 00時(UTC)から 22日の 24時(UTC)まで有効
西/南西の風 4kt
視程: 6000m
高度1300ftの千切れ雲あり
高度4000ftの千切れ雲あり
高度8300ftの曇り
小雨
22日の 06時(UTC)から 22日の 11時(UTC)まで一時的に
視程: 8000m
高度1600ftの千切れ雲あり
高度4000ftの千切れ雲あり
高度9300ftの雲は散在している

TAF: VLVT 212300Z 2200/2224 24004KT 6000 -RA BKN013 BKN040 OVC083 TEMPO 2206/2211 8000 BKN016 BKN040 SCT093

4,000以上の空港の気象観測と天気予報(METAR報とTAF報)

利用可能な観測所は地図上に黄色い丸と赤い丸で示す。

丸の上にカーソルを重ねると観測所名を参照できる。

次にクリックすると気象観測と天気予報を参照できる。

マップの切り替え:黒色「×」印の緑ボタンをクリックして拡大、「-」印の緑ボタンをクリックして縮小、緑色の三角印をクリックして隣りの地図に切り替え


METAR-TAF: